sensor_id;sensor_type;location;lat;lon;timestamp;P1;durP1;ratioP1;P2;durP2;ratioP2
7359;SDS011;3720;48.274;7.796;2023-05-27T00:00:29;18.45;;;5.93;;
7359;SDS011;3720;48.274;7.796;2023-05-27T00:03:03;16.52;;;5.55;;
7359;SDS011;3720;48.274;7.796;2023-05-27T00:05:34;12.60;;;5.13;;
7359;SDS011;3720;48.274;7.796;2023-05-27T00:08:07;17.92;;;5.53;;
7359;SDS011;3720;48.274;7.796;2023-05-27T00:10:40;15.30;;;5.70;;
7359;SDS011;3720;48.274;7.796;2023-05-27T00:13:12;17.85;;;5.40;;
7359;SDS011;3720;48.274;7.796;2023-05-27T00:15:44;19.17;;;5.70;;
7359;SDS011;3720;48.274;7.796;2023-05-27T00:18:16;15.10;;;5.53;;
7359;SDS011;3720;48.274;7.796;2023-05-27T00:20:48;14.13;;;5.40;;
7359;SDS011;3720;48.274;7.796;2023-05-27T00:23:21;14.68;;;5.50;;
7359;SDS011;3720;48.274;7.796;2023-05-27T00:25:54;15.10;;;5.15;;
7359;SDS011;3720;48.274;7.796;2023-05-27T00:28:26;16.35;;;5.75;;
7359;SDS011;3720;48.274;7.796;2023-05-27T00:30:59;17.52;;;5.88;;
7359;SDS011;3720;48.274;7.796;2023-05-27T00:33:30;16.90;;;5.60;;
7359;SDS011;3720;48.274;7.796;2023-05-27T00:36:02;19.42;;;6.22;;
7359;SDS011;3720;48.274;7.796;2023-05-27T00:38:35;18.38;;;5.88;;
7359;SDS011;3720;48.274;7.796;2023-05-27T00:41:09;18.50;;;5.78;;
7359;SDS011;3720;48.274;7.796;2023-05-27T00:43:42;17.88;;;5.35;;
7359;SDS011;3720;48.274;7.796;2023-05-27T00:46:14;18.48;;;5.40;;
7359;SDS011;3720;48.274;7.796;2023-05-27T00:48:46;15.20;;;5.53;;
7359;SDS011;3720;48.274;7.796;2023-05-27T00:51:19;16.67;;;6.28;;
7359;SDS011;3720;48.274;7.796;2023-05-27T00:53:52;18.45;;;6.43;;
7359;SDS011;3720;48.274;7.796;2023-05-27T00:56:25;16.55;;;6.22;;
7359;SDS011;3720;48.274;7.796;2023-05-27T00:58:57;16.50;;;6.22;;
7359;SDS011;3720;48.274;7.796;2023-05-27T01:01:30;18.48;;;5.47;;
7359;SDS011;3720;48.274;7.796;2023-05-27T01:04:03;20.85;;;6.07;;
7359;SDS011;3720;48.274;7.796;2023-05-27T01:06:39;16.58;;;5.93;;
7359;SDS011;3720;48.274;7.796;2023-05-27T01:09:20;21.25;;;6.43;;
7359;SDS011;3720;48.274;7.796;2023-05-27T01:11:59;14.77;;;5.32;;
7359;SDS011;3720;48.274;7.796;2023-05-27T01:14:38;17.25;;;6.10;;
7359;SDS011;3720;48.274;7.796;2023-05-27T01:17:14;20.08;;;5.95;;
7359;SDS011;3720;48.274;7.796;2023-05-27T01:19:47;14.70;;;5.70;;
7359;SDS011;3720;48.274;7.796;2023-05-27T01:22:20;19.17;;;5.82;;
7359;SDS011;3720;48.274;7.796;2023-05-27T01:24:58;17.98;;;5.75;;
7359;SDS011;3720;48.274;7.796;2023-05-27T01:27:30;18.45;;;5.70;;
7359;SDS011;3720;48.274;7.796;2023-05-27T01:30:02;15.65;;;5.70;;
7359;SDS011;3720;48.274;7.796;2023-05-27T01:32:37;16.80;;;5.50;;
7359;SDS011;3720;48.274;7.796;2023-05-27T01:35:17;13.73;;;5.50;;
7359;SDS011;3720;48.274;7.796;2023-05-27T01:37:58;18.38;;;6.30;;
7359;SDS011;3720;48.274;7.796;2023-05-27T01:40:32;16.50;;;5.70;;
7359;SDS011;3720;48.274;7.796;2023-05-27T01:43:06;15.80;;;5.68;;
7359;SDS011;3720;48.274;7.796;2023-05-27T01:45:38;17.02;;;5.53;;
7359;SDS011;3720;48.274;7.796;2023-05-27T01:48:11;15.57;;;5.47;;
7359;SDS011;3720;48.274;7.796;2023-05-27T01:50:43;17.13;;;5.88;;
7359;SDS011;3720;48.274;7.796;2023-05-27T01:53:16;14.60;;;5.57;;
7359;SDS011;3720;48.274;7.796;2023-05-27T01:55:48;13.27;;;5.55;;
7359;SDS011;3720;48.274;7.796;2023-05-27T01:58:20;17.08;;;6.40;;
7359;SDS011;3720;48.274;7.796;2023-05-27T02:00:53;16.15;;;6.25;;
7359;SDS011;3720;48.274;7.796;2023-05-27T02:03:25;17.52;;;6.03;;
7359;SDS011;3720;48.274;7.796;2023-05-27T02:05:57;18.60;;;6.22;;
7359;SDS011;3720;48.274;7.796;2023-05-27T02:08:30;20.50;;;6.30;;
7359;SDS011;3720;48.274;7.796;2023-05-27T02:11:04;13.23;;;5.30;;
7359;SDS011;3720;48.274;7.796;2023-05-27T02:13:35;14.73;;;5.60;;
7359;SDS011;3720;48.274;7.796;2023-05-27T02:16:07;16.40;;;5.70;;
7359;SDS011;3720;48.274;7.796;2023-05-27T02:18:39;15.63;;;5.53;;
7359;SDS011;3720;48.274;7.796;2023-05-27T02:21:11;15.68;;;5.93;;
7359;SDS011;3720;48.274;7.796;2023-05-27T02:23:45;15.65;;;6.22;;
7359;SDS011;3720;48.274;7.796;2023-05-27T02:26:17;12.25;;;5.60;;
7359;SDS011;3720;48.274;7.796;2023-05-27T02:28:49;18.00;;;5.72;;
7359;SDS011;3720;48.274;7.796;2023-05-27T02:31:21;20.90;;;6.30;;
7359;SDS011;3720;48.274;7.796;2023-05-27T02:33:53;18.85;;;6.15;;
7359;SDS011;3720;48.274;7.796;2023-05-27T02:36:25;15.40;;;6.25;;
7359;SDS011;3720;48.274;7.796;2023-05-27T02:38:58;15.15;;;5.95;;
7359;SDS011;3720;48.274;7.796;2023-05-27T02:41:30;20.45;;;5.82;;
7359;SDS011;3720;48.274;7.796;2023-05-27T02:44:02;19.08;;;6.28;;
7359;SDS011;3720;48.274;7.796;2023-05-27T02:46:34;15.93;;;5.78;;
7359;SDS011;3720;48.274;7.796;2023-05-27T02:49:06;13.35;;;5.90;;
7359;SDS011;3720;48.274;7.796;2023-05-27T02:51:38;16.85;;;5.80;;
7359;SDS011;3720;48.274;7.796;2023-05-27T02:54:11;19.00;;;6.15;;
7359;SDS011;3720;48.274;7.796;2023-05-27T02:56:43;16.25;;;5.88;;
7359;SDS011;3720;48.274;7.796;2023-05-27T02:59:15;16.25;;;5.75;;
7359;SDS011;3720;48.274;7.796;2023-05-27T03:01:47;17.85;;;6.22;;
7359;SDS011;3720;48.274;7.796;2023-05-27T03:04:19;13.52;;;5.32;;
7359;SDS011;3720;48.274;7.796;2023-05-27T03:06:51;14.07;;;5.53;;
7359;SDS011;3720;48.274;7.796;2023-05-27T03:09:25;15.27;;;5.85;;
7359;SDS011;3720;48.274;7.796;2023-05-27T03:11:57;13.30;;;5.72;;
7359;SDS011;3720;48.274;7.796;2023-05-27T03:14:29;14.50;;;5.57;;
7359;SDS011;3720;48.274;7.796;2023-05-27T03:17:01;15.20;;;5.80;;
7359;SDS011;3720;48.274;7.796;2023-05-27T03:19:33;16.08;;;5.85;;
7359;SDS011;3720;48.274;7.796;2023-05-27T03:22:06;17.80;;;5.90;;
7359;SDS011;3720;48.274;7.796;2023-05-27T03:24:39;17.70;;;5.78;;
7359;SDS011;3720;48.274;7.796;2023-05-27T03:27:11;13.50;;;5.47;;
7359;SDS011;3720;48.274;7.796;2023-05-27T03:29:43;14.48;;;5.57;;
7359;SDS011;3720;48.274;7.796;2023-05-27T03:32:15;14.02;;;5.57;;
7359;SDS011;3720;48.274;7.796;2023-05-27T03:34:47;14.13;;;5.15;;
7359;SDS011;3720;48.274;7.796;2023-05-27T03:37:19;12.48;;;5.32;;
7359;SDS011;3720;48.274;7.796;2023-05-27T03:39:52;15.10;;;5.47;;
7359;SDS011;3720;48.274;7.796;2023-05-27T03:42:24;15.07;;;5.72;;
7359;SDS011;3720;48.274;7.796;2023-05-27T03:44:56;18.48;;;5.70;;
7359;SDS011;3720;48.274;7.796;2023-05-27T03:47:28;15.80;;;5.63;;
7359;SDS011;3720;48.274;7.796;2023-05-27T03:49:59;14.73;;;5.38;;
7359;SDS011;3720;48.274;7.796;2023-05-27T03:52:32;14.30;;;5.30;;
7359;SDS011;3720;48.274;7.796;2023-05-27T03:55:05;15.50;;;5.65;;
7359;SDS011;3720;48.274;7.796;2023-05-27T03:57:38;14.10;;;5.43;;
7359;SDS011;3720;48.274;7.796;2023-05-27T04:00:10;14.80;;;5.10;;
7359;SDS011;3720;48.274;7.796;2023-05-27T04:02:43;12.65;;;5.22;;
7359;SDS011;3720;48.274;7.796;2023-05-27T04:05:14;13.05;;;5.53;;
7359;SDS011;3720;48.274;7.796;2023-05-27T04:07:47;14.95;;;5.63;;
7359;SDS011;3720;48.274;7.796;2023-05-27T04:10:21;16.63;;;5.32;;
7359;SDS011;3720;48.274;7.796;2023-05-27T04:12:52;12.70;;;5.43;;
7359;SDS011;3720;48.274;7.796;2023-05-27T04:15:25;15.27;;;4.88;;
7359;SDS011;3720;48.274;7.796;2023-05-27T04:17:57;17.20;;;5.32;;
7359;SDS011;3720;48.274;7.796;2023-05-27T04:20:34;14.50;;;4.95;;
7359;SDS011;3720;48.274;7.796;2023-05-27T04:23:07;13.55;;;5.20;;
7359;SDS011;3720;48.274;7.796;2023-05-27T04:25:41;13.77;;;4.78;;
7359;SDS011;3720;48.274;7.796;2023-05-27T04:28:13;15.73;;;5.03;;
7359;SDS011;3720;48.274;7.796;2023-05-27T04:30:45;15.90;;;5.00;;
7359;SDS011;3720;48.274;7.796;2023-05-27T04:33:18;14.68;;;5.00;;
7359;SDS011;3720;48.274;7.796;2023-05-27T04:35:51;16.52;;;4.97;;
7359;SDS011;3720;48.274;7.796;2023-05-27T04:38:23;13.70;;;5.28;;
7359;SDS011;3720;48.274;7.796;2023-05-27T04:40:57;13.73;;;5.30;;
7359;SDS011;3720;48.274;7.796;2023-05-27T04:43:29;12.85;;;4.78;;
7359;SDS011;3720;48.274;7.796;2023-05-27T04:46:01;14.52;;;5.38;;
7359;SDS011;3720;48.274;7.796;2023-05-27T04:48:33;14.57;;;4.88;;
7359;SDS011;3720;48.274;7.796;2023-05-27T04:51:06;14.63;;;5.40;;
7359;SDS011;3720;48.274;7.796;2023-05-27T04:53:37;15.18;;;5.28;;
7359;SDS011;3720;48.274;7.796;2023-05-27T04:56:11;12.88;;;4.70;;
7359;SDS011;3720;48.274;7.796;2023-05-27T04:58:45;14.02;;;5.00;;
7359;SDS011;3720;48.274;7.796;2023-05-27T05:01:18;14.98;;;5.10;;
7359;SDS011;3720;48.274;7.796;2023-05-27T05:03:52;17.10;;;4.95;;
7359;SDS011;3720;48.274;7.796;2023-05-27T05:06:41;13.05;;;5.07;;
7359;SDS011;3720;48.274;7.796;2023-05-27T05:09:13;13.75;;;4.70;;
7359;SDS011;3720;48.274;7.796;2023-05-27T05:11:46;15.52;;;5.05;;
7359;SDS011;3720;48.274;7.796;2023-05-27T05:14:18;16.40;;;4.95;;
7359;SDS011;3720;48.274;7.796;2023-05-27T05:16:50;16.27;;;5.40;;
7359;SDS011;3720;48.274;7.796;2023-05-27T05:19:22;18.17;;;5.15;;
7359;SDS011;3720;48.274;7.796;2023-05-27T05:21:54;17.27;;;5.30;;
7359;SDS011;3720;48.274;7.796;2023-05-27T05:24:26;13.65;;;4.90;;
7359;SDS011;3720;48.274;7.796;2023-05-27T05:26:59;14.85;;;4.85;;
7359;SDS011;3720;48.274;7.796;2023-05-27T05:29:31;14.50;;;4.93;;
7359;SDS011;3720;48.274;7.796;2023-05-27T05:32:04;14.80;;;4.82;;
7359;SDS011;3720;48.274;7.796;2023-05-27T05:34:37;13.50;;;4.47;;
7359;SDS011;3720;48.274;7.796;2023-05-27T05:37:08;17.13;;;4.70;;
7359;SDS011;3720;48.274;7.796;2023-05-27T05:39:42;14.77;;;5.22;;
7359;SDS011;3720;48.274;7.796;2023-05-27T05:42:15;15.13;;;4.68;;
7359;SDS011;3720;48.274;7.796;2023-05-27T05:44:47;18.48;;;4.65;;
7359;SDS011;3720;48.274;7.796;2023-05-27T05:47:19;18.20;;;4.72;;
7359;SDS011;3720;48.274;7.796;2023-05-27T05:49:51;14.90;;;5.05;;
7359;SDS011;3720;48.274;7.796;2023-05-27T05:52:23;13.63;;;4.80;;
7359;SDS011;3720;48.274;7.796;2023-05-27T05:54:56;14.18;;;4.70;;
7359;SDS011;3720;48.274;7.796;2023-05-27T05:57:29;15.27;;;5.15;;
7359;SDS011;3720;48.274;7.796;2023-05-27T06:00:02;17.65;;;5.07;;
7359;SDS011;3720;48.274;7.796;2023-05-27T06:02:35;15.52;;;5.25;;
7359;SDS011;3720;48.274;7.796;2023-05-27T06:05:07;15.98;;;5.00;;
7359;SDS011;3720;48.274;7.796;2023-05-27T06:07:40;14.13;;;5.03;;
7359;SDS011;3720;48.274;7.796;2023-05-27T06:10:12;12.30;;;4.65;;
7359;SDS011;3720;48.274;7.796;2023-05-27T06:12:48;11.38;;;4.30;;
7359;SDS011;3720;48.274;7.796;2023-05-27T06:15:20;12.10;;;4.63;;
7359;SDS011;3720;48.274;7.796;2023-05-27T06:17:52;15.20;;;4.75;;
7359;SDS011;3720;48.274;7.796;2023-05-27T06:20:25;14.80;;;5.20;;
7359;SDS011;3720;48.274;7.796;2023-05-27T06:22:57;14.35;;;4.55;;
7359;SDS011;3720;48.274;7.796;2023-05-27T06:25:29;13.55;;;4.80;;
7359;SDS011;3720;48.274;7.796;2023-05-27T06:28:02;12.70;;;4.57;;
7359;SDS011;3720;48.274;7.796;2023-05-27T06:30:35;18.42;;;5.25;;
7359;SDS011;3720;48.274;7.796;2023-05-27T06:33:07;17.08;;;4.80;;
7359;SDS011;3720;48.274;7.796;2023-05-27T06:35:40;16.38;;;4.55;;
7359;SDS011;3720;48.274;7.796;2023-05-27T06:38:12;13.95;;;4.72;;
7359;SDS011;3720;48.274;7.796;2023-05-27T06:40:44;13.82;;;4.90;;
7359;SDS011;3720;48.274;7.796;2023-05-27T06:43:17;14.95;;;4.57;;
7359;SDS011;3720;48.274;7.796;2023-05-27T06:45:50;11.00;;;4.53;;
7359;SDS011;3720;48.274;7.796;2023-05-27T06:48:22;13.68;;;4.63;;
7359;SDS011;3720;48.274;7.796;2023-05-27T06:50:54;15.98;;;5.00;;
7359;SDS011;3720;48.274;7.796;2023-05-27T06:53:26;13.48;;;4.45;;
7359;SDS011;3720;48.274;7.796;2023-05-27T06:55:57;18.20;;;4.82;;
7359;SDS011;3720;48.274;7.796;2023-05-27T06:58:31;10.73;;;4.63;;
7359;SDS011;3720;48.274;7.796;2023-05-27T07:01:03;13.30;;;4.85;;
7359;SDS011;3720;48.274;7.796;2023-05-27T07:03:35;11.27;;;4.60;;
7359;SDS011;3720;48.274;7.796;2023-05-27T07:06:07;11.57;;;4.22;;
7359;SDS011;3720;48.274;7.796;2023-05-27T07:08:40;16.15;;;4.72;;
7359;SDS011;3720;48.274;7.796;2023-05-27T07:11:11;13.55;;;4.82;;
7359;SDS011;3720;48.274;7.796;2023-05-27T07:13:45;14.50;;;4.70;;
7359;SDS011;3720;48.274;7.796;2023-05-27T07:16:17;12.85;;;4.70;;
7359;SDS011;3720;48.274;7.796;2023-05-27T07:18:49;14.57;;;4.93;;
7359;SDS011;3720;48.274;7.796;2023-05-27T07:21:21;15.13;;;4.90;;
7359;SDS011;3720;48.274;7.796;2023-05-27T07:23:53;14.95;;;4.90;;
7359;SDS011;3720;48.274;7.796;2023-05-27T07:26:28;14.80;;;4.82;;
7359;SDS011;3720;48.274;7.796;2023-05-27T07:29:02;16.85;;;5.10;;
7359;SDS011;3720;48.274;7.796;2023-05-27T07:31:34;19.20;;;5.22;;
7359;SDS011;3720;48.274;7.796;2023-05-27T07:34:06;16.73;;;5.00;;
7359;SDS011;3720;48.274;7.796;2023-05-27T07:36:38;15.98;;;4.68;;
7359;SDS011;3720;48.274;7.796;2023-05-27T07:39:10;14.27;;;5.00;;
7359;SDS011;3720;48.274;7.796;2023-05-27T07:41:42;14.82;;;5.13;;
7359;SDS011;3720;48.274;7.796;2023-05-27T07:44:15;28.00;;;5.57;;
7359;SDS011;3720;48.274;7.796;2023-05-27T07:46:49;17.40;;;5.03;;
7359;SDS011;3720;48.274;7.796;2023-05-27T07:49:21;16.23;;;4.90;;
7359;SDS011;3720;48.274;7.796;2023-05-27T07:51:55;20.10;;;4.88;;
7359;SDS011;3720;48.274;7.796;2023-05-27T07:54:26;14.55;;;4.97;;
7359;SDS011;3720;48.274;7.796;2023-05-27T07:56:59;34.97;;;6.28;;
7359;SDS011;3720;48.274;7.796;2023-05-27T07:59:32;15.25;;;4.90;;
7359;SDS011;3720;48.274;7.796;2023-05-27T08:02:04;15.68;;;4.68;;
7359;SDS011;3720;48.274;7.796;2023-05-27T08:04:37;12.77;;;5.03;;
7359;SDS011;3720;48.274;7.796;2023-05-27T08:07:09;12.40;;;4.50;;
7359;SDS011;3720;48.274;7.796;2023-05-27T08:09:41;13.48;;;4.82;;
7359;SDS011;3720;48.274;7.796;2023-05-27T08:12:13;17.50;;;5.30;;
7359;SDS011;3720;48.274;7.796;2023-05-27T08:14:47;16.80;;;4.97;;
7359;SDS011;3720;48.274;7.796;2023-05-27T08:17:19;14.68;;;4.85;;
7359;SDS011;3720;48.274;7.796;2023-05-27T08:19:51;17.42;;;4.75;;
7359;SDS011;3720;48.274;7.796;2023-05-27T08:22:23;15.30;;;5.03;;
7359;SDS011;3720;48.274;7.796;2023-05-27T08:24:56;14.93;;;5.43;;
7359;SDS011;3720;48.274;7.796;2023-05-27T08:27:44;12.10;;;4.60;;
7359;SDS011;3720;48.274;7.796;2023-05-27T08:30:18;16.92;;;5.30;;
7359;SDS011;3720;48.274;7.796;2023-05-27T08:32:52;13.23;;;5.00;;
7359;SDS011;3720;48.274;7.796;2023-05-27T08:35:23;13.20;;;4.90;;
7359;SDS011;3720;48.274;7.796;2023-05-27T08:37:56;14.60;;;4.85;;
7359;SDS011;3720;48.274;7.796;2023-05-27T08:40:28;15.63;;;4.80;;
7359;SDS011;3720;48.274;7.796;2023-05-27T08:43:00;15.10;;;4.72;;
7359;SDS011;3720;48.274;7.796;2023-05-27T08:45:35;14.30;;;4.93;;
7359;SDS011;3720;48.274;7.796;2023-05-27T08:48:10;12.32;;;4.85;;
7359;SDS011;3720;48.274;7.796;2023-05-27T08:50:42;15.95;;;5.18;;
7359;SDS011;3720;48.274;7.796;2023-05-27T08:53:15;15.07;;;5.30;;
7359;SDS011;3720;48.274;7.796;2023-05-27T08:55:49;13.77;;;4.60;;
7359;SDS011;3720;48.274;7.796;2023-05-27T08:58:23;15.80;;;5.00;;
7359;SDS011;3720;48.274;7.796;2023-05-27T09:00:57;16.05;;;4.45;;
7359;SDS011;3720;48.274;7.796;2023-05-27T09:03:31;12.50;;;4.70;;
7359;SDS011;3720;48.274;7.796;2023-05-27T09:06:03;10.63;;;4.57;;
7359;SDS011;3720;48.274;7.796;2023-05-27T09:08:35;11.38;;;4.50;;
7359;SDS011;3720;48.274;7.796;2023-05-27T09:11:08;12.93;;;4.28;;
7359;SDS011;3720;48.274;7.796;2023-05-27T09:13:52;12.18;;;4.55;;
7359;SDS011;3720;48.274;7.796;2023-05-27T09:16:27;16.30;;;5.18;;
7359;SDS011;3720;48.274;7.796;2023-05-27T09:18:59;11.80;;;4.50;;
7359;SDS011;3720;48.274;7.796;2023-05-27T09:21:31;10.27;;;4.43;;
7359;SDS011;3720;48.274;7.796;2023-05-27T09:24:03;16.60;;;4.90;;
7359;SDS011;3720;48.274;7.796;2023-05-27T09:26:35;14.60;;;4.70;;
7359;SDS011;3720;48.274;7.796;2023-05-27T09:29:07;13.25;;;4.43;;
7359;SDS011;3720;48.274;7.796;2023-05-27T09:31:41;15.10;;;4.60;;
7359;SDS011;3720;48.274;7.796;2023-05-27T09:34:15;12.18;;;4.80;;
7359;SDS011;3720;48.274;7.796;2023-05-27T09:36:49;13.60;;;4.85;;
7359;SDS011;3720;48.274;7.796;2023-05-27T09:39:22;10.63;;;4.40;;
7359;SDS011;3720;48.274;7.796;2023-05-27T09:41:55;12.77;;;4.78;;
7359;SDS011;3720;48.274;7.796;2023-05-27T09:44:29;12.32;;;4.43;;
7359;SDS011;3720;48.274;7.796;2023-05-27T09:47:03;13.73;;;4.75;;
7359;SDS011;3720;48.274;7.796;2023-05-27T09:49:36;12.25;;;4.65;;
7359;SDS011;3720;48.274;7.796;2023-05-27T09:52:09;11.52;;;4.63;;
7359;SDS011;3720;48.274;7.796;2023-05-27T09:54:43;15.65;;;4.55;;
7359;SDS011;3720;48.274;7.796;2023-05-27T09:57:15;19.10;;;4.63;;
7359;SDS011;3720;48.274;7.796;2023-05-27T09:59:49;13.85;;;4.47;;
7359;SDS011;3720;48.274;7.796;2023-05-27T10:02:23;13.27;;;5.22;;
7359;SDS011;3720;48.274;7.796;2023-05-27T10:04:57;13.88;;;4.47;;
7359;SDS011;3720;48.274;7.796;2023-05-27T10:07:31;13.02;;;4.20;;
7359;SDS011;3720;48.274;7.796;2023-05-27T10:10:04;15.80;;;5.18;;
7359;SDS011;3720;48.274;7.796;2023-05-27T10:12:37;11.20;;;4.53;;
7359;SDS011;3720;48.274;7.796;2023-05-27T10:15:20;14.48;;;4.82;;
7359;SDS011;3720;48.274;7.796;2023-05-27T10:17:54;11.18;;;4.50;;
7359;SDS011;3720;48.274;7.796;2023-05-27T10:20:27;15.13;;;4.82;;
7359;SDS011;3720;48.274;7.796;2023-05-27T10:23:08;13.27;;;4.47;;
7359;SDS011;3720;48.274;7.796;2023-05-27T10:25:45;11.45;;;4.50;;
7359;SDS011;3720;48.274;7.796;2023-05-27T10:28:25;13.45;;;4.53;;
7359;SDS011;3720;48.274;7.796;2023-05-27T10:31:05;12.30;;;4.40;;
7359;SDS011;3720;48.274;7.796;2023-05-27T10:33:39;13.10;;;4.55;;
7359;SDS011;3720;48.274;7.796;2023-05-27T10:36:14;12.27;;;4.47;;
7359;SDS011;3720;48.274;7.796;2023-05-27T10:38:54;13.57;;;4.97;;
7359;SDS011;3720;48.274;7.796;2023-05-27T10:41:27;11.57;;;4.57;;
7359;SDS011;3720;48.274;7.796;2023-05-27T10:43:58;11.00;;;4.55;;
7359;SDS011;3720;48.274;7.796;2023-05-27T10:46:37;14.75;;;5.13;;
7359;SDS011;3720;48.274;7.796;2023-05-27T10:49:14;13.10;;;4.75;;
7359;SDS011;3720;48.274;7.796;2023-05-27T10:51:47;14.63;;;5.28;;
7359;SDS011;3720;48.274;7.796;2023-05-27T10:54:20;9.82;;;4.47;;
7359;SDS011;3720;48.274;7.796;2023-05-27T10:56:56;16.55;;;4.97;;
7359;SDS011;3720;48.274;7.796;2023-05-27T10:59:33;17.08;;;5.15;;
7359;SDS011;3720;48.274;7.796;2023-05-27T11:02:12;12.43;;;4.90;;
7359;SDS011;3720;48.274;7.796;2023-05-27T11:04:46;14.23;;;4.60;;
7359;SDS011;3720;48.274;7.796;2023-05-27T11:07:20;15.05;;;4.97;;
7359;SDS011;3720;48.274;7.796;2023-05-27T11:09:54;9.60;;;4.60;;
7359;SDS011;3720;48.274;7.796;2023-05-27T11:12:26;13.98;;;5.20;;
7359;SDS011;3720;48.274;7.796;2023-05-27T11:14:58;15.63;;;5.00;;
7359;SDS011;3720;48.274;7.796;2023-05-27T11:17:30;12.32;;;4.45;;
7359;SDS011;3720;48.274;7.796;2023-05-27T11:20:05;11.95;;;4.63;;
7359;SDS011;3720;48.274;7.796;2023-05-27T11:22:38;12.65;;;5.22;;
7359;SDS011;3720;48.274;7.796;2023-05-27T11:25:11;13.48;;;5.03;;
7359;SDS011;3720;48.274;7.796;2023-05-27T11:27:42;12.63;;;4.35;;
7359;SDS011;3720;48.274;7.796;2023-05-27T11:30:15;11.32;;;5.20;;
7359;SDS011;3720;48.274;7.796;2023-05-27T11:32:47;12.23;;;5.07;;
7359;SDS011;3720;48.274;7.796;2023-05-27T11:35:20;13.07;;;4.90;;
7359;SDS011;3720;48.274;7.796;2023-05-27T11:37:52;12.55;;;5.28;;
7359;SDS011;3720;48.274;7.796;2023-05-27T11:40:25;12.85;;;5.05;;
7359;SDS011;3720;48.274;7.796;2023-05-27T11:42:59;13.50;;;4.65;;
7359;SDS011;3720;48.274;7.796;2023-05-27T11:45:34;16.58;;;5.50;;
7359;SDS011;3720;48.274;7.796;2023-05-27T11:48:09;12.70;;;5.30;;
7359;SDS011;3720;48.274;7.796;2023-05-27T11:50:43;16.30;;;5.03;;
7359;SDS011;3720;48.274;7.796;2023-05-27T11:53:17;11.38;;;5.03;;
7359;SDS011;3720;48.274;7.796;2023-05-27T11:55:49;17.33;;;5.10;;
7359;SDS011;3720;48.274;7.796;2023-05-27T11:58:21;17.20;;;5.25;;
7359;SDS011;3720;48.274;7.796;2023-05-27T12:00:54;13.40;;;5.20;;
7359;SDS011;3720;48.274;7.796;2023-05-27T12:03:25;11.88;;;4.50;;
7359;SDS011;3720;48.274;7.796;2023-05-27T12:05:59;11.00;;;4.88;;
7359;SDS011;3720;48.274;7.796;2023-05-27T12:08:31;22.20;;;5.13;;
7359;SDS011;3720;48.274;7.796;2023-05-27T12:11:03;14.35;;;5.15;;
7359;SDS011;3720;48.274;7.796;2023-05-27T12:13:36;12.00;;;4.95;;
7359;SDS011;3720;48.274;7.796;2023-05-27T12:16:08;12.85;;;4.80;;
7359;SDS011;3720;48.274;7.796;2023-05-27T12:18:40;14.13;;;5.07;;
7359;SDS011;3720;48.274;7.796;2023-05-27T12:21:14;9.05;;;4.53;;
7359;SDS011;3720;48.274;7.796;2023-05-27T12:23:46;12.50;;;4.82;;
7359;SDS011;3720;48.274;7.796;2023-05-27T12:26:19;13.15;;;5.07;;
7359;SDS011;3720;48.274;7.796;2023-05-27T12:28:52;12.35;;;5.10;;
7359;SDS011;3720;48.274;7.796;2023-05-27T12:31:23;10.98;;;4.68;;
7359;SDS011;3720;48.274;7.796;2023-05-27T12:33:56;13.05;;;5.07;;
7359;SDS011;3720;48.274;7.796;2023-05-27T12:36:29;13.85;;;4.93;;
7359;SDS011;3720;48.274;7.796;2023-05-27T12:39:02;10.55;;;4.85;;
7359;SDS011;3720;48.274;7.796;2023-05-27T12:41:34;12.35;;;5.07;;
7359;SDS011;3720;48.274;7.796;2023-05-27T12:44:07;14.07;;;4.82;;
7359;SDS011;3720;48.274;7.796;2023-05-27T12:46:39;11.93;;;5.45;;
7359;SDS011;3720;48.274;7.796;2023-05-27T12:49:12;11.20;;;5.18;;
7359;SDS011;3720;48.274;7.796;2023-05-27T12:51:45;10.30;;;5.00;;
7359;SDS011;3720;48.274;7.796;2023-05-27T12:54:17;12.77;;;5.65;;
7359;SDS011;3720;48.274;7.796;2023-05-27T12:56:49;12.80;;;5.35;;
7359;SDS011;3720;48.274;7.796;2023-05-27T12:59:22;10.25;;;4.65;;
7359;SDS011;3720;48.274;7.796;2023-05-27T13:01:54;13.00;;;4.88;;
7359;SDS011;3720;48.274;7.796;2023-05-27T13:04:25;10.88;;;4.80;;
7359;SDS011;3720;48.274;7.796;2023-05-27T13:06:59;13.27;;;5.07;;
7359;SDS011;3720;48.274;7.796;2023-05-27T13:09:31;13.63;;;5.20;;
7359;SDS011;3720;48.274;7.796;2023-05-27T13:12:03;13.07;;;4.90;;
7359;SDS011;3720;48.274;7.796;2023-05-27T13:14:35;12.63;;;5.03;;
7359;SDS011;3720;48.274;7.796;2023-05-27T13:17:07;13.93;;;5.13;;
7359;SDS011;3720;48.274;7.796;2023-05-27T13:19:39;13.70;;;5.13;;
7359;SDS011;3720;48.274;7.796;2023-05-27T13:22:13;10.27;;;5.50;;
7359;SDS011;3720;48.274;7.796;2023-05-27T13:24:45;13.75;;;5.35;;
7359;SDS011;3720;48.274;7.796;2023-05-27T13:27:17;13.90;;;5.20;;
7359;SDS011;3720;48.274;7.796;2023-05-27T13:29:48;13.75;;;5.43;;
7359;SDS011;3720;48.274;7.796;2023-05-27T13:32:20;9.40;;;4.85;;
7359;SDS011;3720;48.274;7.796;2023-05-27T13:34:52;10.88;;;4.90;;
7359;SDS011;3720;48.274;7.796;2023-05-27T13:37:27;9.77;;;5.22;;
7359;SDS011;3720;48.274;7.796;2023-05-27T13:39:59;12.25;;;4.90;;
7359;SDS011;3720;48.274;7.796;2023-05-27T13:42:31;9.23;;;5.05;;
7359;SDS011;3720;48.274;7.796;2023-05-27T13:45:04;10.38;;;5.55;;
7359;SDS011;3720;48.274;7.796;2023-05-27T13:47:37;10.20;;;5.40;;
7359;SDS011;3720;48.274;7.796;2023-05-27T13:50:10;9.68;;;5.00;;
7359;SDS011;3720;48.274;7.796;2023-05-27T13:52:44;10.27;;;5.10;;
7359;SDS011;3720;48.274;7.796;2023-05-27T13:55:16;11.10;;;4.93;;
7359;SDS011;3720;48.274;7.796;2023-05-27T13:57:48;11.27;;;5.40;;
7359;SDS011;3720;48.274;7.796;2023-05-27T14:00:20;12.80;;;5.07;;
7359;SDS011;3720;48.274;7.796;2023-05-27T14:02:52;10.55;;;5.20;;
7359;SDS011;3720;48.274;7.796;2023-05-27T14:05:24;14.45;;;5.18;;
7359;SDS011;3720;48.274;7.796;2023-05-27T14:07:58;9.93;;;5.28;;
7359;SDS011;3720;48.274;7.796;2023-05-27T14:10:31;11.65;;;5.50;;
7359;SDS011;3720;48.274;7.796;2023-05-27T14:13:04;24.30;;;5.78;;
7359;SDS011;3720;48.274;7.796;2023-05-27T14:15:36;12.95;;;5.22;;
7359;SDS011;3720;48.274;7.796;2023-05-27T14:18:08;10.48;;;5.13;;
7359;SDS011;3720;48.274;7.796;2023-05-27T14:20:40;10.27;;;5.40;;
7359;SDS011;3720;48.274;7.796;2023-05-27T14:23:13;10.40;;;5.30;;
7359;SDS011;3720;48.274;7.796;2023-05-27T14:25:46;13.10;;;5.28;;
7359;SDS011;3720;48.274;7.796;2023-05-27T14:28:18;10.48;;;5.10;;
7359;SDS011;3720;48.274;7.796;2023-05-27T14:30:50;10.85;;;5.13;;
7359;SDS011;3720;48.274;7.796;2023-05-27T14:33:23;12.20;;;5.00;;
7359;SDS011;3720;48.274;7.796;2023-05-27T14:35:55;10.00;;;5.25;;
7359;SDS011;3720;48.274;7.796;2023-05-27T14:38:29;10.25;;;5.13;;
7359;SDS011;3720;48.274;7.796;2023-05-27T14:41:01;9.30;;;5.45;;
7359;SDS011;3720;48.274;7.796;2023-05-27T14:43:33;11.48;;;4.95;;
7359;SDS011;3720;48.274;7.796;2023-05-27T14:46:05;8.43;;;4.80;;
7359;SDS011;3720;48.274;7.796;2023-05-27T14:48:36;11.65;;;4.95;;
7359;SDS011;3720;48.274;7.796;2023-05-27T14:51:08;8.90;;;4.80;;
7359;SDS011;3720;48.274;7.796;2023-05-27T14:53:43;10.45;;;5.43;;
7359;SDS011;3720;48.274;7.796;2023-05-27T14:56:15;12.48;;;5.70;;
7359;SDS011;3720;48.274;7.796;2023-05-27T14:58:47;10.40;;;5.05;;
7359;SDS011;3720;48.274;7.796;2023-05-27T15:01:20;10.10;;;5.00;;
7359;SDS011;3720;48.274;7.796;2023-05-27T15:03:52;10.52;;;5.10;;
7359;SDS011;3720;48.274;7.796;2023-05-27T15:06:25;10.68;;;5.47;;
7359;SDS011;3720;48.274;7.796;2023-05-27T15:08:58;10.15;;;5.30;;
7359;SDS011;3720;48.274;7.796;2023-05-27T15:11:32;10.55;;;5.47;;
7359;SDS011;3720;48.274;7.796;2023-05-27T15:14:06;11.88;;;5.25;;
7359;SDS011;3720;48.274;7.796;2023-05-27T15:16:39;10.00;;;5.40;;
7359;SDS011;3720;48.274;7.796;2023-05-27T15:19:11;11.95;;;5.60;;
7359;SDS011;3720;48.274;7.796;2023-05-27T15:21:43;9.43;;;5.50;;
7359;SDS011;3720;48.274;7.796;2023-05-27T15:24:16;8.13;;;5.30;;
7359;SDS011;3720;48.274;7.796;2023-05-27T15:26:48;10.45;;;4.97;;
7359;SDS011;3720;48.274;7.796;2023-05-27T15:29:20;9.65;;;5.03;;
7359;SDS011;3720;48.274;7.796;2023-05-27T15:31:52;11.90;;;5.30;;
7359;SDS011;3720;48.274;7.796;2023-05-27T15:34:24;12.43;;;5.32;;
7359;SDS011;3720;48.274;7.796;2023-05-27T15:36:56;9.48;;;5.18;;